Time;durP1;ratioP1;P1;durP2;ratioP2;P2;SDS_P1;SDS_P2;PMS_P1;PMS_P2;Temp;Humidity;BMP_temperature;BMP_pressure;BME280_temperature;BME280_humidity;BME280_pressure;Samples;Min_cycle;Max_cycle;Signal;HPM_P1;HPM_P2
2021/10/30 00:01:01;;;;;;;4.27;3.43;;;9.30;84.30;;;;;;5064691;28;20213;-70
2021/10/30 00:03:33;;;;;;;3.50;3.17;;;9.30;84.20;;;;;;5061022;28;20206;-69
2021/10/30 00:06:00;;;;;;;4.00;3.70;;;9.30;84.30;;;;;;5063818;28;20312;-70
2021/10/30 00:08:29;;;;;;;3.73;3.43;;;9.20;84.40;;;;;;5063470;28;20217;-69
2021/10/30 00:11:08;;;;;;;5.53;2.00;;;9.20;84.50;;;;;;5062596;28;20549;-69
2021/10/30 00:13:39;;;;;;;6.10;4.43;;;9.20;84.60;;;;;;5079106;28;20253;-70
2021/10/30 00:16:14;;;;;;;4.17;3.63;;;9.20;84.60;;;;;;5077159;28;20521;-70
2021/10/30 00:19:03;;;;;;;2.67;2.47;;;9.20;84.60;;;;;;5079942;28;20241;-71
2021/10/30 00:21:32;;;;;;;3.10;2.80;;;9.10;84.70;;;;;;5080439;28;20247;-70
2021/10/30 00:24:00;;;;;;;4.57;4.03;;;9.10;85.10;;;;;;5077513;28;20233;-71
2021/10/30 00:26:28;;;;;;;4.80;3.90;;;9.10;85.70;;;;;;5074971;28;20560;-71
2021/10/30 00:28:56;;;;;;;2.90;2.70;;;9.10;86.00;;;;;;5075281;28;20256;-70
2021/10/30 00:31:23;;;;;;;5.40;5.10;;;9.00;86.30;;;;;;5063112;28;20224;-70
2021/10/30 00:33:50;;;;;;;8.90;5.33;;;9.00;86.50;;;;;;5075319;28;20234;-70
2021/10/30 00:36:18;;;;;;;3.40;2.47;;;9.00;86.70;;;;;;5057916;28;20294;-70
2021/10/30 00:38:46;;;;;;;4.57;3.10;;;8.90;86.80;;;;;;5077225;28;20304;-71
2021/10/30 00:41:14;;;;;;;5.10;3.43;;;8.90;86.70;;;;;;5058286;28;20202;-69
2021/10/30 00:43:44;;;;;;;5.03;4.13;;;8.90;86.50;;;;;;5058681;28;20228;-70
2021/10/30 00:46:12;;;;;;;3.37;3.17;;;8.90;86.30;;;;;;5067606;28;20253;-71
2021/10/30 00:48:42;;;;;;;4.80;2.73;;;8.80;86.40;;;;;;5074474;28;20213;-70
2021/10/30 00:51:13;;;;;;;3.10;2.50;;;8.80;86.40;;;;;;5056971;28;20213;-70
2021/10/30 00:53:44;;;;;;;4.07;3.73;;;8.80;86.30;;;;;;5075230;28;20560;-70
2021/10/30 00:56:13;;;;;;;4.40;4.10;;;8.70;85.90;;;;;;5074945;28;20904;-69
2021/10/30 00:58:42;;;;;;;4.67;4.27;;;8.70;85.90;;;;;;5077040;28;20280;-70
2021/10/30 01:01:09;;;;;;;3.33;3.03;;;8.60;85.70;;;;;;5074384;28;20209;-71
2021/10/30 01:03:44;;;;;;;6.80;3.10;;;8.60;85.80;;;;;;5059295;28;20222;-71
2021/10/30 01:06:13;;;;;;;3.03;2.83;;;8.60;85.70;;;;;;5059114;28;20213;-70
2021/10/30 01:08:43;;;;;;;1.77;1.67;;;8.50;85.50;;;;;;5076863;28;20232;-69
2021/10/30 01:11:15;;;;;;;5.97;3.03;;;8.50;85.40;;;;;;5076694;28;20267;-70
2021/10/30 01:13:45;;;;;;;3.17;2.97;;;8.40;85.40;;;;;;5074799;28;20265;-71
2021/10/30 01:16:12;;;;;;;5.20;4.43;;;8.40;85.70;;;;;;5058235;28;20214;-70
2021/10/30 01:18:47;;;;;;;4.03;2.93;;;8.30;85.80;;;;;;5077045;28;20210;-70
2021/10/30 01:21:30;;;;;;;5.80;5.27;;;8.30;85.90;;;;;;5059257;28;20804;-70
2021/10/30 01:23:58;;;;;;;9.37;4.47;;;8.20;86.10;;;;;;5073277;28;20217;-70
2021/10/30 01:26:26;;;;;;;4.50;2.67;;;8.20;86.30;;;;;;5058155;28;20217;-72
2021/10/30 01:29:00;;;;;;;5.33;3.90;;;8.10;86.40;;;;;;5058447;28;20438;-70
2021/10/30 01:31:27;;;;;;;4.00;3.70;;;8.10;86.50;;;;;;5075378;28;20218;-70
2021/10/30 01:33:55;;;;;;;3.17;2.53;;;8.00;86.50;;;;;;5057563;28;20233;-70
2021/10/30 01:36:25;;;;;;;2.50;1.97;;;8.00;86.70;;;;;;5054186;28;20252;-70
2021/10/30 01:38:53;;;;;;;3.13;2.70;;;8.00;86.90;;;;;;5071787;28;20220;-70
2021/10/30 01:41:24;;;;;;;0.57;0.57;;;7.90;87.00;;;;;;5054340;28;20243;-71
2021/10/30 01:43:55;;;;;;;6.43;2.90;;;7.90;87.30;;;;;;5057470;28;20275;-70
2021/10/30 01:46:23;;;;;;;1.90;1.83;;;7.90;87.30;;;;;;5053304;28;20233;-70
2021/10/30 01:48:51;;;;;;;5.23;4.30;;;7.90;87.20;;;;;;5073784;28;20202;-71
2021/10/30 01:51:21;;;;;;;7.00;4.37;;;7.90;87.10;;;;;;5058604;28;20220;-71
2021/10/30 01:53:49;;;;;;;4.30;3.57;;;7.90;86.80;;;;;;5054581;28;20303;-70
2021/10/30 01:56:17;;;;;;;4.53;3.23;;;7.80;86.50;;;;;;5057470;28;20217;-70
2021/10/30 01:58:45;;;;;;;16.70;4.07;;;7.80;86.40;;;;;;5058878;28;20217;-70
2021/10/30 02:01:14;;;;;;;6.10;3.37;;;7.70;86.60;;;;;;5073352;28;20424;-71
2021/10/30 02:03:43;;;;;;;5.83;2.43;;;7.70;86.60;;;;;;5075590;28;20220;-70
2021/10/30 02:06:16;;;;;;;2.20;2.00;;;7.70;86.70;;;;;;5076729;28;20277;-70
2021/10/30 02:08:43;;;;;;;6.57;3.27;;;7.80;86.70;;;;;;5075419;28;20224;-70
2021/10/30 02:11:12;;;;;;;6.43;4.10;;;7.70;86.50;;;;;;5059856;28;20241;-70
2021/10/30 02:13:42;;;;;;;5.10;4.60;;;7.80;86.40;;;;;;5074843;28;20245;-71
2021/10/30 02:16:13;;;;;;;1.93;1.83;;;7.80;86.10;;;;;;5080188;28;20271;-70
2021/10/30 02:18:45;;;;;;;4.77;4.23;;;7.80;86.10;;;;;;5066609;28;20229;-71
2021/10/30 02:21:22;;;;;;;3.03;2.10;;;7.80;86.10;;;;;;5086510;28;20205;-71
2021/10/30 02:23:52;;;;;;;3.90;3.63;;;7.80;86.20;;;;;;5068202;28;20276;-72
2021/10/30 02:26:28;;;;;;;3.73;3.27;;;7.70;86.20;;;;;;5069714;28;20543;-71
2021/10/30 02:29:00;;;;;;;7.63;2.87;;;7.70;86.10;;;;;;5063729;28;20214;-70
2021/10/30 02:31:45;;;;;;;3.83;2.37;;;7.70;86.00;;;;;;5086455;28;20224;-71
2021/10/30 02:34:15;;;;;;;3.10;2.90;;;7.70;86.30;;;;;;5083777;28;20233;-70
2021/10/30 02:36:45;;;;;;;11.10;6.17;;;7.70;86.30;;;;;;5084042;28;20225;-70
2021/10/30 02:39:20;;;;;;;1.63;1.53;;;7.70;86.20;;;;;;5081003;28;20202;-71
2021/10/30 02:41:50;;;;;;;1.53;1.43;;;7.70;86.20;;;;;;5077519;28;20217;-70
2021/10/30 02:44:17;;;;;;;3.30;2.10;;;7.70;86.10;;;;;;5060090;28;20522;-70
2021/10/30 02:46:45;;;;;;;5.60;2.63;;;7.80;86.20;;;;;;5077814;28;20229;-71
2021/10/30 02:49:13;;;;;;;3.10;2.83;;;7.80;86.10;;;;;;5060307;28;20223;-69
2021/10/30 02:51:43;;;;;;;2.00;1.90;;;7.80;85.90;;;;;;5059474;28;20544;-70
2021/10/30 02:54:13;;;;;;;6.03;3.87;;;7.80;86.00;;;;;;5078421;28;20237;-70
2021/10/30 02:56:40;;;;;;;2.53;2.33;;;7.80;86.10;;;;;;5075748;28;20686;-71
2021/10/30 02:59:08;;;;;;;3.23;3.03;;;7.80;86.20;;;;;;5077194;28;20209;-71
2021/10/30 03:01:39;;;;;;;3.60;3.40;;;7.90;86.40;;;;;;5074940;28;20306;-70
2021/10/30 03:04:06;;;;;;;12.93;4.13;;;8.00;86.50;;;;;;5058277;28;20642;-70
2021/10/30 03:06:33;;;;;;;2.27;2.13;;;8.00;86.50;;;;;;5058274;28;20214;-70
2021/10/30 03:09:01;;;;;;;1.40;0.97;;;8.00;86.70;;;;;;5058501;28;20209;-70
2021/10/30 03:11:28;;;;;;;3.80;3.37;;;8.10;87.10;;;;;;5075152;28;20301;-71
2021/10/30 03:13:55;;;;;;;5.73;4.97;;;8.10;87.30;;;;;;5057359;28;20244;-70
2021/10/30 03:16:23;;;;;;;4.73;3.90;;;8.20;87.30;;;;;;5056912;28;20210;-71
2021/10/30 03:18:52;;;;;;;2.30;1.47;;;8.30;87.20;;;;;;5076742;28;20212;-71
2021/10/30 03:21:27;;;;;;;4.97;4.57;;;8.40;87.20;;;;;;5079789;28;20211;-70
2021/10/30 03:24:03;;;;;;;3.23;2.03;;;8.60;87.10;;;;;;5082687;28;20251;-70
2021/10/30 03:26:30;;;;;;;4.27;2.83;;;8.60;86.80;;;;;;5066351;28;20690;-70
2021/10/30 03:29:00;;;;;;;2.20;2.10;;;8.70;86.60;;;;;;5080712;28;20206;-71
2021/10/30 03:31:34;;;;;;;2.90;2.67;;;8.80;86.60;;;;;;5063391;28;20217;-70
2021/10/30 03:34:01;;;;;;;2.40;2.20;;;8.80;86.40;;;;;;5046720;28;20679;-71
2021/10/30 03:36:29;;;;;;;2.37;2.20;;;8.90;86.40;;;;;;5079016;28;20209;-70
2021/10/30 03:39:00;;;;;;;4.87;3.63;;;8.90;86.30;;;;;;5078335;28;20218;-71
2021/10/30 03:41:29;;;;;;;4.90;3.00;;;9.00;86.20;;;;;;5079649;28;20232;-71
2021/10/30 03:44:00;;;;;;;5.43;4.40;;;9.00;86.10;;;;;;5083133;28;20201;-71
2021/10/30 03:46:28;;;;;;;4.60;4.13;;;9.10;86.10;;;;;;5061860;28;20247;-71
2021/10/30 03:48:56;;;;;;;3.30;2.60;;;9.10;86.00;;;;;;5077755;28;20525;-71
2021/10/30 03:51:40;;;;;;;3.63;3.33;;;9.20;86.00;;;;;;5081289;28;20243;-70
2021/10/30 03:54:09;;;;;;;6.83;4.47;;;9.20;86.50;;;;;;5062880;28;20320;-71
2021/10/30 03:56:39;;;;;;;4.97;4.17;;;9.20;85.90;;;;;;5077023;28;20205;-71
2021/10/30 03:59:07;;;;;;;5.63;4.87;;;9.20;85.90;;;;;;5062935;28;20230;-71
2021/10/30 04:01:38;;;;;;;6.67;3.97;;;9.20;85.90;;;;;;5080067;28;20225;-70
2021/10/30 04:04:17;;;;;;;4.07;3.70;;;9.30;86.00;;;;;;5076843;28;20214;-70
2021/10/30 04:06:45;;;;;;;14.47;6.07;;;9.30;86.00;;;;;;5074916;28;20300;-70
2021/10/30 04:09:14;;;;;;;3.13;2.97;;;9.30;85.80;;;;;;5060005;28;20297;-71
2021/10/30 04:11:43;;;;;;;4.13;3.40;;;9.30;85.70;;;;;;5075739;28;20273;-69
2021/10/30 04:14:13;;;;;;;6.33;3.50;;;9.30;85.60;;;;;;5060604;28;20264;-70
2021/10/30 04:17:04;;;;;;;4.23;3.43;;;9.30;85.60;;;;;;5080317;28;20224;-71
2021/10/30 04:19:34;;;;;;;2.40;2.30;;;9.40;85.70;;;;;;5077410;28;20670;-73
2021/10/30 04:22:10;;;;;;;11.73;4.30;;;9.40;85.50;;;;;;5064897;28;20209;-70
2021/10/30 04:24:37;;;;;;;12.00;5.90;;;9.40;85.50;;;;;;5061015;28;20210;-70
2021/10/30 04:27:06;;;;;;;6.17;1.87;;;9.40;85.40;;;;;;5064982;28;20595;-71
2021/10/30 04:29:42;;;;;;;2.30;2.17;;;9.40;85.30;;;;;;5080724;28;20220;-71
2021/10/30 04:32:16;;;;;;;9.57;4.27;;;9.40;85.20;;;;;;5081150;28;20229;-70
2021/10/30 04:34:57;;;;;;;6.80;4.60;;;9.30;85.20;;;;;;5078336;28;20259;-71
2021/10/30 04:37:27;;;;;;;7.20;2.70;;;9.30;85.30;;;;;;5060872;28;20706;-71
2021/10/30 04:39:54;;;;;;;3.87;3.67;;;9.30;85.30;;;;;;5077332;28;20217;-70
2021/10/30 04:42:22;;;;;;;6.23;4.50;;;9.20;85.40;;;;;;5079150;28;20205;-70
2021/10/30 04:45:05;;;;;;;3.57;3.27;;;9.30;85.50;;;;;;5075957;28;20242;-71
2021/10/30 04:47:41;;;;;;;5.47;4.77;;;9.20;85.50;;;;;;5059348;28;20220;-70
2021/10/30 04:50:08;;;;;;;8.73;2.73;;;9.20;85.50;;;;;;5075587;28;20610;-70
2021/10/30 04:52:36;;;;;;;19.97;2.97;;;9.30;85.60;;;;;;5058144;28;20608;-70
2021/10/30 04:55:06;;;;;;;7.13;2.73;;;9.30;85.60;;;;;;5076788;28;20230;-70
2021/10/30 04:57:34;;;;;;;5.03;4.63;;;9.30;85.60;;;;;;5079540;28;20317;-70
2021/10/30 05:00:11;;;;;;;4.97;1.90;;;9.40;85.60;;;;;;5074970;28;20272;-70
2021/10/30 05:02:38;;;;;;;2.97;2.80;;;9.40;85.70;;;;;;5057448;28;20218;-70
2021/10/30 05:05:09;;;;;;;3.13;2.87;;;9.40;85.80;;;;;;5059752;28;20218;-71
2021/10/30 05:07:38;;;;;;;4.60;4.13;;;9.50;85.80;;;;;;5044455;28;20222;-70
2021/10/30 05:10:06;;;;;;;2.47;1.73;;;9.50;85.70;;;;;;5039412;28;20214;-71
2021/10/30 05:12:35;;;;;;;6.87;4.57;;;9.60;85.70;;;;;;5039094;28;20214;-70
2021/10/30 05:15:04;;;;;;;3.90;2.73;;;9.60;85.70;;;;;;5057152;28;20230;-70
2021/10/30 05:17:32;;;;;;;4.40;3.83;;;9.70;85.70;;;;;;5039717;28;20221;-70
2021/10/30 05:20:00;;;;;;;5.03;3.23;;;9.70;85.80;;;;;;5056834;28;20217;-71
2021/10/30 05:22:28;;;;;;;3.80;3.13;;;9.70;85.80;;;;;;5054147;28;20221;-70
2021/10/30 05:24:56;;;;;;;5.53;5.13;;;9.70;85.70;;;;;;5057726;28;20236;-71
2021/10/30 05:27:24;;;;;;;6.40;5.37;;;9.70;85.70;;;;;;5057762;28;20717;-70
2021/10/30 05:29:58;;;;;;;5.97;4.17;;;9.80;85.80;;;;;;5058529;28;20216;-70
2021/10/30 05:32:28;;;;;;;5.13;3.73;;;9.80;85.80;;;;;;5057973;28;20222;-72
2021/10/30 05:34:57;;;;;;;7.50;3.47;;;9.80;86.50;;;;;;5076108;28;20295;-72
2021/10/30 05:37:25;;;;;;;9.97;4.43;;;9.90;86.00;;;;;;5046410;28;20305;-71
2021/10/30 05:39:53;;;;;;;13.00;4.70;;;9.90;86.00;;;;;;5055188;28;20260;-70
2021/10/30 05:42:21;;;;;;;15.07;6.30;;;9.90;86.00;;;;;;5055198;28;20265;-71
2021/10/30 05:44:49;;;;;;;5.80;3.60;;;10.00;86.00;;;;;;5057074;28;20313;-71
2021/10/30 05:47:21;;;;;;;14.87;5.63;;;10.10;86.00;;;;;;5055329;28;20210;-71
2021/10/30 05:49:49;;;;;;;4.50;4.10;;;10.10;85.90;;;;;;5057092;28;20214;-71
2021/10/30 05:52:17;;;;;;;28.07;5.80;;;10.10;85.90;;;;;;5055728;28;20286;-70
2021/10/30 05:54:44;;;;;;;6.93;3.53;;;10.20;86.00;;;;;;5074252;28;20233;-71
2021/10/30 05:57:14;;;;;;;3.30;3.10;;;10.20;85.90;;;;;;5075494;28;20205;-70
2021/10/30 05:59:55;;;;;;;2.37;2.27;;;10.20;85.80;;;;;;5062649;28;20210;-70
2021/10/30 06:02:26;;;;;;;3.00;2.67;;;10.30;85.80;;;;;;5076655;28;20209;-70
2021/10/30 06:04:56;;;;;;;3.57;2.43;;;10.30;85.80;;;;;;5057515;28;20206;-71
2021/10/30 06:07:27;;;;;;;6.83;5.07;;;10.30;85.70;;;;;;5057672;28;20202;-71
2021/10/30 06:09:54;;;;;;;6.17;4.83;;;10.30;85.60;;;;;;5075699;28;20468;-70
2021/10/30 06:12:24;;;;;;;3.97;3.67;;;10.30;86.20;;;;;;5060291;28;20662;-70
2021/10/30 06:14:54;;;;;;;1.97;1.87;;;10.30;85.50;;;;;;5063564;28;20287;-71
2021/10/30 06:17:22;;;;;;;4.33;3.70;;;10.30;85.40;;;;;;5079583;28;20224;-71
2021/10/30 06:20:01;;;;;;;3.17;2.87;;;10.30;85.30;;;;;;5045317;28;20206;-71
2021/10/30 06:22:29;;;;;;;8.23;4.03;;;10.30;85.30;;;;;;5060045;28;20285;-71
2021/10/30 06:24:57;;;;;;;4.67;4.33;;;10.30;85.30;;;;;;5079792;28;20596;-71
2021/10/30 06:27:24;;;;;;;9.80;5.83;;;10.30;85.20;;;;;;5062878;28;20227;-71
2021/10/30 06:29:51;;;;;;;6.03;5.43;;;10.30;85.10;;;;;;5061061;28;20209;-71
2021/10/30 06:32:21;;;;;;;4.13;3.93;;;10.40;85.10;;;;;;5060631;28;20245;-71
2021/10/30 06:34:48;;;;;;;6.07;3.07;;;10.40;85.00;;;;;;5061965;28;20240;-71
2021/10/30 06:37:16;;;;;;;9.73;5.43;;;10.40;84.80;;;;;;5078557;28;20224;-70
2021/10/30 06:39:44;;;;;;;3.27;2.97;;;10.40;84.70;;;;;;5079029;28;20226;-71
2021/10/30 06:42:17;;;;;;;2.83;2.50;;;10.40;84.50;;;;;;5060354;28;20206;-72
2021/10/30 06:44:45;;;;;;;4.00;3.70;;;10.40;84.40;;;;;;5077201;28;20221;-71
2021/10/30 06:47:13;;;;;;;9.53;6.37;;;10.40;84.20;;;;;;5059709;28;20655;-71
2021/10/30 06:49:42;;;;;;;6.07;3.70;;;10.40;84.20;;;;;;5060200;28;20214;-71
2021/10/30 06:52:10;;;;;;;5.00;2.93;;;10.40;84.20;;;;;;5060307;28;20216;-70
2021/10/30 06:54:38;;;;;;;5.53;3.43;;;10.50;84.20;;;;;;5079153;28;20230;-74
2021/10/30 06:57:08;;;;;;;6.90;4.33;;;10.50;84.20;;;;;;5077530;28;20202;-73
2021/10/30 06:59:36;;;;;;;5.83;4.73;;;10.60;84.20;;;;;;5061336;28;20272;-72
2021/10/30 07:02:05;;;;;;;9.50;5.80;;;10.70;84.10;;;;;;5079040;28;20209;-72
2021/10/30 07:04:38;;;;;;;3.30;3.10;;;10.70;83.90;;;;;;5081389;28;20213;-71
2021/10/30 07:07:09;;;;;;;7.00;3.70;;;10.80;83.80;;;;;;5065347;28;20635;-74
2021/10/30 07:09:37;;;;;;;4.23;3.80;;;10.90;83.60;;;;;;5082190;28;20551;-72
2021/10/30 07:12:06;;;;;;;8.37;4.83;;;11.00;83.70;;;;;;5081506;28;20635;-72
2021/10/30 07:14:49;;;;;;;6.80;5.37;;;11.00;83.60;;;;;;5067556;28;20241;-71
2021/10/30 07:17:24;;;;;;;3.10;2.10;;;11.10;83.40;;;;;;5063987;28;20259;-71
2021/10/30 07:19:52;;;;;;;3.77;3.47;;;11.20;83.40;;;;;;5051849;28;20627;-71
2021/10/30 07:22:28;;;;;;;5.37;3.70;;;11.30;83.40;;;;;;5083405;28;20216;-70
2021/10/30 07:24:56;;;;;;;6.70;4.60;;;11.40;83.30;;;;;;5063021;28;20329;-70
2021/10/30 07:27:28;;;;;;;36.63;3.97;;;11.40;83.20;;;;;;5071350;28;20201;-71
2021/10/30 07:29:57;;;;;;;17.77;4.63;;;11.50;83.30;;;;;;5065902;28;20218;-70
2021/10/30 07:32:26;;;;;;;8.63;5.17;;;11.50;83.40;;;;;;5063859;28;20213;-71
2021/10/30 07:34:55;;;;;;;9.40;4.07;;;11.50;83.50;;;;;;5064561;28;20257;-71
2021/10/30 07:37:23;;;;;;;23.47;3.97;;;11.60;83.60;;;;;;5059734;28;20314;-71
2021/10/30 07:39:51;;;;;;;8.97;7.30;;;11.60;83.60;;;;;;5080779;28;20794;-70
2021/10/30 07:42:19;;;;;;;2.73;2.63;;;11.70;83.70;;;;;;5062254;28;20201;-71
2021/10/30 07:44:46;;;;;;;13.30;6.23;;;11.80;83.60;;;;;;5078895;28;20205;-71
2021/10/30 07:47:16;;;;;;;5.73;5.03;;;11.90;83.60;;;;;;5060713;28;20214;-71
2021/10/30 07:49:48;;;;;;;27.47;5.73;;;11.90;83.50;;;;;;5080882;28;20220;-71
2021/10/30 07:52:16;;;;;;;8.90;4.17;;;12.00;83.60;;;;;;5064224;28;20220;-70
2021/10/30 07:54:43;;;;;;;9.10;5.63;;;12.00;83.70;;;;;;5064090;28;20253;-70
2021/10/30 07:57:12;;;;;;;8.37;3.87;;;12.00;84.00;;;;;;5044037;28;20225;-70
2021/10/30 07:59:43;;;;;;;6.53;5.93;;;12.00;84.20;;;;;;5062376;28;20211;-70
2021/10/30 08:02:12;;;;;;;3.83;3.53;;;12.00;84.20;;;;;;5044801;28;20211;-70
2021/10/30 08:04:44;;;;;;;4.50;4.10;;;12.00;83.90;;;;;;5044615;28;20210;-71
2021/10/30 08:07:12;;;;;;;10.10;5.57;;;12.10;83.70;;;;;;5064233;28;20214;-72
2021/10/30 08:09:45;;;;;;;5.33;4.07;;;12.10;83.40;;;;;;5061538;28;20211;-72
2021/10/30 08:12:14;;;;;;;6.20;2.67;;;12.10;83.00;;;;;;5046234;28;20276;-72
2021/10/30 08:14:44;;;;;;;7.00;4.80;;;12.10;82.60;;;;;;5062864;28;20237;-72
2021/10/30 08:17:11;;;;;;;19.53;4.20;;;12.20;82.30;;;;;;5045362;28;20217;-72
2021/10/30 08:19:46;;;;;;;8.03;7.27;;;12.10;81.90;;;;;;5066538;28;20207;-71
2021/10/30 08:22:25;;;;;;;4.77;4.43;;;12.20;82.00;;;;;;5061606;28;20210;-72
2021/10/30 08:24:55;;;;;;;13.43;4.63;;;12.20;81.80;;;;;;5062049;28;20218;-71
2021/10/30 08:27:32;;;;;;;4.07;3.27;;;12.10;82.00;;;;;;5070606;28;20363;-72
2021/10/30 08:30:04;;;;;;;4.33;3.10;;;12.10;81.20;;;;;;5065318;28;20237;-71
2021/10/30 08:32:33;;;;;;;5.73;3.70;;;12.10;81.20;;;;;;5062707;28;20201;-72
2021/10/30 08:35:02;;;;;;;5.63;4.30;;;12.20;81.00;;;;;;5063801;28;20241;-72
2021/10/30 08:37:38;;;;;;;6.57;6.07;;;12.20;80.80;;;;;;5081731;28;20292;-72
2021/10/30 08:40:12;;;;;;;10.87;4.47;;;12.30;80.60;;;;;;5063933;28;20274;-71
2021/10/30 08:43:06;;;;;;;7.33;6.13;;;12.50;80.30;;;;;;5081496;28;20202;-72
2021/10/30 08:45:34;;;;;;;4.57;3.83;;;12.60;79.90;;;;;;5061921;28;20256;-71
2021/10/30 08:48:05;;;;;;;4.90;3.53;;;12.70;79.70;;;;;;5065529;28;20273;-72
2021/10/30 08:50:36;;;;;;;7.07;6.03;;;12.80;79.60;;;;;;5060516;28;20249;-72
2021/10/30 08:53:07;;;;;;;6.37;5.13;;;12.90;79.00;;;;;;5056907;28;20246;-72
2021/10/30 08:55:36;;;;;;;5.07;4.07;;;13.00;78.50;;;;;;5059388;28;20287;-71
2021/10/30 08:58:10;;;;;;;9.90;6.10;;;13.10;78.50;;;;;;5042277;28;20715;-71
2021/10/30 09:00:45;;;;;;;7.57;4.80;;;13.20;78.20;;;;;;5059646;28;20218;-71
2021/10/30 09:03:14;;;;;;;7.77;6.97;;;13.40;77.90;;;;;;5044059;28;20240;-71
2021/10/30 09:05:45;;;;;;;12.90;4.63;;;13.40;77.80;;;;;;5057957;28;20644;-71
2021/10/30 09:08:15;;;;;;;5.97;5.57;;;13.50;78.50;;;;;;5058809;28;20219;-71
2021/10/30 09:10:54;;;;;;;5.47;4.97;;;13.50;77.90;;;;;;5057434;28;20269;-72
2021/10/30 09:13:31;;;;;;;15.20;7.27;;;13.70;77.90;;;;;;5060337;28;20228;-71
2021/10/30 09:16:01;;;;;;;8.17;4.10;;;13.90;77.70;;;;;;5061086;28;20241;-72
2021/10/30 09:18:39;;;;;;;8.47;4.93;;;14.00;77.40;;;;;;5059384;28;20214;-72
2021/10/30 09:21:15;;;;;;;6.50;4.63;;;14.20;77.30;;;;;;5059245;28;20620;-72
2021/10/30 09:23:52;;;;;;;8.60;5.90;;;14.30;76.50;;;;;;5071605;28;20214;-72
2021/10/30 09:26:31;;;;;;;13.57;5.63;;;14.40;76.60;;;;;;5044342;28;20221;-72
2021/10/30 09:29:15;;;;;;;7.87;4.77;;;14.60;76.30;;;;;;5081084;28;20229;-72
2021/10/30 09:31:43;;;;;;;7.30;5.97;;;14.70;76.10;;;;;;5081203;28;20224;-72
2021/10/30 09:34:27;;;;;;;4.67;4.37;;;14.90;75.90;;;;;;5063148;28;20296;-71
2021/10/30 09:36:58;;;;;;;7.67;6.70;;;15.00;74.90;;;;;;5078681;28;20209;-72
2021/10/30 09:39:33;;;;;;;11.37;6.67;;;15.10;74.60;;;;;;5049414;28;20245;-72
2021/10/30 09:42:28;;;;;;;20.30;6.57;;;15.20;74.50;;;;;;5080917;28;20220;-72
2021/10/30 09:45:10;;;;;;;13.67;5.67;;;15.30;74.60;;;;;;5075885;28;20230;-72
2021/10/30 09:47:57;;;;;;;5.50;4.10;;;15.40;75.00;;;;;;5061928;28;20593;-71
2021/10/30 09:50:32;;;;;;;5.00;4.53;;;15.50;75.40;;;;;;5077554;28;20446;-72
2021/10/30 09:53:21;;;;;;;4.30;3.80;;;15.50;75.40;;;;;;5057568;28;20214;-72
2021/10/30 09:56:15;;;;;;;9.80;5.57;;;15.60;75.40;;;;;;5059864;28;20686;-72
2021/10/30 09:58:46;;;;;;;6.77;3.27;;;15.70;75.50;;;;;;5059445;28;20233;-71
2021/10/30 10:01:18;;;;;;;11.10;4.93;;;15.70;75.60;;;;;;5057341;28;20226;-73
2021/10/30 10:03:48;;;;;;;8.93;5.07;;;15.80;75.90;;;;;;5042345;28;20225;-73
2021/10/30 10:06:22;;;;;;;3.27;2.83;;;15.90;76.10;;;;;;5045461;28;20218;-73
2021/10/30 10:08:51;;;;;;;5.47;4.00;;;15.90;75.90;;;;;;5062384;28;20214;-72
2021/10/30 10:11:20;;;;;;;11.03;5.50;;;16.00;75.90;;;;;;5081545;28;20269;-73
2021/10/30 10:13:51;;;;;;;15.67;7.17;;;16.10;76.00;;;;;;5062087;28;20229;-73
2021/10/30 10:16:21;;;;;;;19.57;6.03;;;16.20;75.80;;;;;;5063327;28;20235;-72
2021/10/30 10:18:55;;;;;;;7.53;1.73;;;16.30;75.70;;;;;;5080197;28;20213;-70
2021/10/30 10:21:38;;;;;;;9.90;5.60;;;16.40;75.70;;;;;;5062790;28;20220;-73
2021/10/30 10:24:18;;;;;;;3.77;3.23;;;16.50;75.50;;;;;;5051512;28;20209;-77
2021/10/30 10:26:52;;;;;;;12.10;4.90;;;16.70;75.20;;;;;;5038358;28;20214;-73
2021/10/30 10:29:42;;;;;;;2.10;2.00;;;16.70;75.70;;;;;;5058208;28;20206;-73
2021/10/30 10:32:26;;;;;;;5.80;2.77;;;16.60;75.30;;;;;;5057691;28;20306;-73
2021/10/30 10:35:04;;;;;;;6.13;4.63;;;16.70;75.40;;;;;;5042916;28;20222;-73
2021/10/30 10:37:46;;;;;;;4.73;2.13;;;16.90;74.90;;;;;;5074059;28;20256;-73
2021/10/30 10:40:31;;;;;;;10.87;5.67;;;17.20;74.10;;;;;;5067777;28;20228;-73
2021/10/30 10:43:07;;;;;;;4.00;3.70;;;17.40;73.60;;;;;;5066626;28;20235;-74
2021/10/30 10:45:55;;;;;;;3.57;2.87;;;17.50;73.20;;;;;;5081891;28;20233;-72
2021/10/30 10:48:41;;;;;;;8.73;4.23;;;17.60;72.30;;;;;;5066950;28;20237;-72
2021/10/30 10:51:21;;;;;;;2.63;2.43;;;17.50;71.70;;;;;;5067402;28;20544;-72
2021/10/30 10:53:58;;;;;;;6.77;4.93;;;17.30;72.10;;;;;;5083447;28;20285;-72
2021/10/30 10:56:32;;;;;;;3.90;3.60;;;17.10;72.50;;;;;;5085465;28;20367;-72
2021/10/30 10:59:04;;;;;;;4.43;3.10;;;17.00;73.00;;;;;;5066360;28;20202;-72
2021/10/30 11:01:36;;;;;;;4.63;2.07;;;16.90;73.50;;;;;;5066266;28;20202;-73
2021/10/30 11:04:16;;;;;;;12.23;5.30;;;16.80;73.60;;;;;;5066574;28;20205;-73
2021/10/30 11:06:48;;;;;;;17.37;3.47;;;16.80;73.80;;;;;;5057187;28;20250;-73
2021/10/30 11:09:17;;;;;;;12.20;6.33;;;16.90;73.90;;;;;;5063886;28;20213;-73
2021/10/30 11:11:51;;;;;;;1.40;1.40;;;17.00;73.90;;;;;;5063672;28;20245;-72
2021/10/30 11:14:32;;;;;;;5.07;2.13;;;17.00;73.50;;;;;;5044936;28;20292;-72
2021/10/30 11:17:03;;;;;;;4.70;3.90;;;17.10;73.40;;;;;;5060564;28;20713;-72
2021/10/30 11:19:38;;;;;;;4.37;4.00;;;17.20;73.10;;;;;;5043194;28;20241;-72
2021/10/30 11:22:15;;;;;;;3.97;3.67;;;17.10;73.30;;;;;;5045741;28;20213;-71
2021/10/30 11:25:00;;;;;;;6.67;5.23;;;17.00;73.40;;;;;;5081500;28;20609;-71
2021/10/30 11:27:32;;;;;;;7.50;2.90;;;16.90;73.80;;;;;;5065057;28;20202;-70
2021/10/30 11:30:11;;;;;;;3.07;2.73;;;16.90;74.10;;;;;;5080933;28;20201;-71
2021/10/30 11:32:39;;;;;;;5.17;2.87;;;16.90;74.30;;;;;;5079629;28;20586;-71
2021/10/30 11:35:15;;;;;;;3.60;3.30;;;17.00;74.10;;;;;;5080261;28;20225;-72
2021/10/30 11:37:42;;;;;;;1.83;1.73;;;17.30;73.50;;;;;;5047407;28;20210;-71
2021/10/30 11:40:11;;;;;;;1.77;1.67;;;17.60;72.40;;;;;;5059228;28;20232;-71
2021/10/30 11:42:43;;;;;;;2.23;2.03;;;17.70;70.50;;;;;;5059560;28;20215;-71
2021/10/30 11:45:10;;;;;;;1.43;1.33;;;17.70;70.80;;;;;;5042136;28;20246;-71
2021/10/30 11:47:39;;;;;;;3.37;3.07;;;17.80;70.90;;;;;;5071470;28;20244;-72
2021/10/30 11:50:12;;;;;;;2.93;1.90;;;17.90;69.90;;;;;;5078279;28;20570;-71
2021/10/30 11:52:50;;;;;;;3.10;2.83;;;17.90;70.00;;;;;;5062039;28;20217;-71
2021/10/30 11:55:26;;;;;;;3.53;3.33;;;17.80;70.10;;;;;;5059260;28;20268;-72
2021/10/30 11:58:07;;;;;;;4.63;3.40;;;17.80;70.20;;;;;;5061889;28;20317;-72
2021/10/30 12:00:36;;;;;;;3.20;2.73;;;17.70;70.00;;;;;;5043233;28;20221;-71
2021/10/30 12:03:04;;;;;;;5.37;3.83;;;17.60;70.10;;;;;;5060946;28;20210;-71
2021/10/30 12:05:34;;;;;;;3.63;2.97;;;17.40;70.10;;;;;;5058716;28;20221;-73
2021/10/30 12:08:11;;;;;;;2.10;1.80;;;17.30;70.80;;;;;;5062372;28;20234;-72
2021/10/30 12:10:39;;;;;;;3.17;2.37;;;17.20;70.90;;;;;;5047487;28;20186;-71
2021/10/30 12:13:08;;;;;;;6.53;4.70;;;17.20;71.20;;;;;;5060725;28;20420;-71
2021/10/30 12:15:47;;;;;;;2.90;2.70;;;17.20;72.00;;;;;;5059631;28;20631;-70
2021/10/30 12:18:15;;;;;;;2.27;2.17;;;17.30;71.80;;;;;;5063085;28;20215;-70
2021/10/30 12:20:42;;;;;;;9.93;3.00;;;17.40;71.70;;;;;;5061015;28;20202;-72
2021/10/30 12:23:13;;;;;;;4.30;2.77;;;17.40;71.50;;;;;;5063281;28;20210;-71
2021/10/30 12:25:43;;;;;;;2.67;2.47;;;17.40;71.30;;;;;;5079723;28;20213;-72
2021/10/30 12:28:13;;;;;;;1.83;1.67;;;17.40;70.70;;;;;;5081133;28;20206;-72
2021/10/30 12:30:43;;;;;;;2.83;2.63;;;17.40;71.00;;;;;;5061854;28;20564;-72
2021/10/30 12:33:16;;;;;;;3.17;2.97;;;17.40;70.80;;;;;;5063830;28;20236;-71
2021/10/30 12:35:45;;;;;;;4.10;2.93;;;17.40;70.90;;;;;;5060803;28;20230;-71
2021/10/30 12:38:28;;;;;;;3.33;2.43;;;17.40;71.00;;;;;;5062834;28;20584;-71
2021/10/30 12:40:57;;;;;;;6.37;5.83;;;17.40;71.00;;;;;;5079968;28;20221;-72
2021/10/30 12:43:27;;;;;;;2.70;2.50;;;17.30;71.30;;;;;;5080459;28;20222;-71
2021/10/30 12:45:58;;;;;;;4.10;3.67;;;17.30;71.30;;;;;;5080259;28;20330;-71
2021/10/30 12:48:47;;;;;;;3.63;2.90;;;17.30;71.40;;;;;;5062733;28;20253;-71
2021/10/30 12:51:25;;;;;;;2.73;2.57;;;17.20;71.50;;;;;;5060957;28;20648;-71
2021/10/30 12:54:02;;;;;;;2.97;2.77;;;17.10;71.50;;;;;;5079516;28;20213;-72
2021/10/30 12:56:41;;;;;;;2.30;2.03;;;17.10;71.80;;;;;;5079047;28;20225;-71
2021/10/30 12:59:12;;;;;;;3.87;3.17;;;17.00;71.80;;;;;;5079007;28;20202;-72
2021/10/30 13:01:53;;;;;;;4.20;2.70;;;16.90;71.80;;;;;;5059488;28;20206;-71
2021/10/30 13:04:40;;;;;;;9.43;6.50;;;16.90;71.90;;;;;;5079549;28;20288;-71
2021/10/30 13:07:10;;;;;;;2.77;2.30;;;16.80;72.10;;;;;;5060632;28;20218;-71
2021/10/30 13:09:37;;;;;;;8.30;5.73;;;16.90;72.30;;;;;;5061268;28;20224;-71
2021/10/30 13:12:08;;;;;;;3.20;3.00;;;16.90;72.30;;;;;;5077007;28;20213;-71
2021/10/30 13:14:36;;;;;;;2.27;2.07;;;16.90;72.10;;;;;;5078354;28;20220;-74